Exminster, United Kingdom
Current Conditions -  °F | °C
As of 8:20 AM on Friday 28 Nov 2014 (Local Time) from EGTE Reporting Station
Broken Clouds Broken Clouds  
Wind Chill: 52°   Ceiling: 1600
Heat Index: 52°   Visibility: 6mi
Dew Point: 46°   Wind: 21mph
Humidity: 82%   Direction: 90°E
Pressure: 29.47"   Gusts: NA
Location:  50.68°N, 3.5°W
Report Text: EGTE 280820Z 09018KT 9999 BKN016 11/08 Q0998
Loading
Personal Weather Stations






























Interactive Weather Map New forecast layout! Learn more

10-Day Weather Forecast

Advertisements
Track Severe Weather on mobile